sensor_id;sensor_type;location;lat;lon;timestamp;P1;durP1;ratioP1;P2;durP2;ratioP2
23119;SDS011;11729;50.836;4.330;2022-07-17T00:00:50;7.18;;;5.82;;
23119;SDS011;11729;50.836;4.330;2022-07-17T00:03:16;10.60;;;5.60;;
23119;SDS011;11729;50.836;4.330;2022-07-17T00:05:43;8.32;;;5.53;;
23119;SDS011;11729;50.836;4.330;2022-07-17T00:08:09;7.93;;;5.55;;
23119;SDS011;11729;50.836;4.330;2022-07-17T00:10:37;8.27;;;5.82;;
23119;SDS011;11729;50.836;4.330;2022-07-17T00:13:04;10.63;;;6.00;;
23119;SDS011;11729;50.836;4.330;2022-07-17T00:15:30;9.15;;;5.45;;
23119;SDS011;11729;50.836;4.330;2022-07-17T00:17:55;9.88;;;5.70;;
23119;SDS011;11729;50.836;4.330;2022-07-17T00:20:21;11.30;;;6.00;;
23119;SDS011;11729;50.836;4.330;2022-07-17T00:22:50;12.40;;;6.28;;
23119;SDS011;11729;50.836;4.330;2022-07-17T00:25:16;7.20;;;5.70;;
23119;SDS011;11729;50.836;4.330;2022-07-17T00:27:41;9.20;;;5.50;;
23119;SDS011;11729;50.836;4.330;2022-07-17T00:30:07;12.23;;;6.10;;
23119;SDS011;11729;50.836;4.330;2022-07-17T00:32:33;9.30;;;5.40;;
23119;SDS011;11729;50.836;4.330;2022-07-17T00:34:59;9.45;;;5.70;;
23119;SDS011;11729;50.836;4.330;2022-07-17T00:37:25;7.10;;;5.60;;
23119;SDS011;11729;50.836;4.330;2022-07-17T00:39:50;9.38;;;6.05;;
23119;SDS011;11729;50.836;4.330;2022-07-17T00:42:16;12.38;;;5.35;;
23119;SDS011;11729;50.836;4.330;2022-07-17T00:44:43;10.35;;;5.93;;
23119;SDS011;11729;50.836;4.330;2022-07-17T00:47:27;8.25;;;5.72;;
23119;SDS011;11729;50.836;4.330;2022-07-17T00:49:53;9.82;;;5.70;;
23119;SDS011;11729;50.836;4.330;2022-07-17T00:52:19;10.25;;;6.18;;
23119;SDS011;11729;50.836;4.330;2022-07-17T00:54:45;13.48;;;6.07;;
23119;SDS011;11729;50.836;4.330;2022-07-17T00:57:12;7.90;;;5.95;;
23119;SDS011;11729;50.836;4.330;2022-07-17T00:59:39;9.35;;;6.00;;
23119;SDS011;11729;50.836;4.330;2022-07-17T01:02:07;9.25;;;5.90;;
23119;SDS011;11729;50.836;4.330;2022-07-17T01:04:37;9.82;;;5.82;;
23119;SDS011;11729;50.836;4.330;2022-07-17T01:07:04;10.10;;;5.82;;
23119;SDS011;11729;50.836;4.330;2022-07-17T01:09:31;10.88;;;6.18;;
23119;SDS011;11729;50.836;4.330;2022-07-17T01:11:57;13.40;;;6.13;;
23119;SDS011;11729;50.836;4.330;2022-07-17T01:14:24;8.00;;;5.97;;
23119;SDS011;11729;50.836;4.330;2022-07-17T01:16:51;10.13;;;5.78;;
23119;SDS011;11729;50.836;4.330;2022-07-17T01:19:18;8.90;;;5.85;;
23119;SDS011;11729;50.836;4.330;2022-07-17T01:21:45;7.57;;;5.38;;
23119;SDS011;11729;50.836;4.330;2022-07-17T01:24:12;13.65;;;5.85;;
23119;SDS011;11729;50.836;4.330;2022-07-17T01:26:42;11.93;;;6.00;;
23119;SDS011;11729;50.836;4.330;2022-07-17T01:29:09;9.93;;;5.85;;
23119;SDS011;11729;50.836;4.330;2022-07-17T01:31:36;8.57;;;6.03;;
23119;SDS011;11729;50.836;4.330;2022-07-17T01:34:04;7.22;;;5.85;;
23119;SDS011;11729;50.836;4.330;2022-07-17T01:36:30;12.50;;;6.00;;
23119;SDS011;11729;50.836;4.330;2022-07-17T01:38:56;9.05;;;5.90;;
23119;SDS011;11729;50.836;4.330;2022-07-17T01:41:22;12.82;;;6.82;;
23119;SDS011;11729;50.836;4.330;2022-07-17T01:43:48;14.35;;;6.45;;
23119;SDS011;11729;50.836;4.330;2022-07-17T01:46:14;13.00;;;6.53;;
23119;SDS011;11729;50.836;4.330;2022-07-17T01:48:40;17.08;;;5.82;;
23119;SDS011;11729;50.836;4.330;2022-07-17T01:51:06;12.35;;;6.50;;
23119;SDS011;11729;50.836;4.330;2022-07-17T01:53:31;9.05;;;6.18;;
23119;SDS011;11729;50.836;4.330;2022-07-17T01:55:57;13.98;;;6.28;;
23119;SDS011;11729;50.836;4.330;2022-07-17T01:58:23;8.27;;;5.63;;
23119;SDS011;11729;50.836;4.330;2022-07-17T02:00:48;15.18;;;6.18;;
23119;SDS011;11729;50.836;4.330;2022-07-17T02:03:15;10.10;;;6.43;;
23119;SDS011;11729;50.836;4.330;2022-07-17T02:05:41;14.40;;;6.30;;
23119;SDS011;11729;50.836;4.330;2022-07-17T02:08:07;9.95;;;6.00;;
23119;SDS011;11729;50.836;4.330;2022-07-17T02:10:33;9.63;;;6.00;;
23119;SDS011;11729;50.836;4.330;2022-07-17T02:12:58;8.18;;;5.93;;
23119;SDS011;11729;50.836;4.330;2022-07-17T02:15:24;8.32;;;5.80;;
23119;SDS011;11729;50.836;4.330;2022-07-17T02:17:50;8.77;;;5.97;;
23119;SDS011;11729;50.836;4.330;2022-07-17T02:20:16;10.52;;;5.78;;
23119;SDS011;11729;50.836;4.330;2022-07-17T02:22:42;8.73;;;5.82;;
23119;SDS011;11729;50.836;4.330;2022-07-17T02:25:08;7.28;;;5.70;;
23119;SDS011;11729;50.836;4.330;2022-07-17T02:27:34;9.25;;;5.80;;
23119;SDS011;11729;50.836;4.330;2022-07-17T02:30:05;9.23;;;5.60;;
23119;SDS011;11729;50.836;4.330;2022-07-17T02:32:35;14.95;;;6.43;;
23119;SDS011;11729;50.836;4.330;2022-07-17T02:35:01;11.23;;;6.00;;
23119;SDS011;11729;50.836;4.330;2022-07-17T02:37:27;9.90;;;5.82;;
23119;SDS011;11729;50.836;4.330;2022-07-17T02:39:52;9.13;;;6.53;;
23119;SDS011;11729;50.836;4.330;2022-07-17T02:42:22;8.95;;;5.95;;
23119;SDS011;11729;50.836;4.330;2022-07-17T02:44:49;12.82;;;6.28;;
23119;SDS011;11729;50.836;4.330;2022-07-17T02:47:22;10.00;;;5.82;;
23119;SDS011;11729;50.836;4.330;2022-07-17T02:49:49;11.25;;;6.15;;
23119;SDS011;11729;50.836;4.330;2022-07-17T02:52:15;14.70;;;6.20;;
23119;SDS011;11729;50.836;4.330;2022-07-17T02:54:41;11.27;;;6.00;;
23119;SDS011;11729;50.836;4.330;2022-07-17T02:57:06;15.38;;;6.18;;
23119;SDS011;11729;50.836;4.330;2022-07-17T02:59:32;12.60;;;6.25;;
23119;SDS011;11729;50.836;4.330;2022-07-17T03:01:58;9.23;;;5.60;;
23119;SDS011;11729;50.836;4.330;2022-07-17T03:04:23;11.38;;;5.90;;
23119;SDS011;11729;50.836;4.330;2022-07-17T03:06:49;9.35;;;6.00;;
23119;SDS011;11729;50.836;4.330;2022-07-17T03:09:15;8.43;;;5.53;;
23119;SDS011;11729;50.836;4.330;2022-07-17T03:11:40;8.38;;;5.55;;
23119;SDS011;11729;50.836;4.330;2022-07-17T03:14:06;11.05;;;5.60;;
23119;SDS011;11729;50.836;4.330;2022-07-17T03:16:32;9.77;;;5.75;;
23119;SDS011;11729;50.836;4.330;2022-07-17T03:18:57;12.20;;;5.80;;
23119;SDS011;11729;50.836;4.330;2022-07-17T03:21:23;10.25;;;5.70;;
23119;SDS011;11729;50.836;4.330;2022-07-17T03:23:48;7.88;;;5.72;;
23119;SDS011;11729;50.836;4.330;2022-07-17T03:26:14;9.95;;;6.22;;
23119;SDS011;11729;50.836;4.330;2022-07-17T03:28:40;8.93;;;5.97;;
23119;SDS011;11729;50.836;4.330;2022-07-17T03:31:05;10.35;;;5.85;;
23119;SDS011;11729;50.836;4.330;2022-07-17T03:33:31;14.60;;;6.00;;
23119;SDS011;11729;50.836;4.330;2022-07-17T03:35:56;12.70;;;6.32;;
23119;SDS011;11729;50.836;4.330;2022-07-17T03:38:23;10.55;;;5.93;;
23119;SDS011;11729;50.836;4.330;2022-07-17T03:40:48;7.45;;;5.90;;
23119;SDS011;11729;50.836;4.330;2022-07-17T03:43:14;8.32;;;5.65;;
23119;SDS011;11729;50.836;4.330;2022-07-17T03:45:41;9.98;;;5.53;;
23119;SDS011;11729;50.836;4.330;2022-07-17T03:48:06;12.10;;;5.80;;
23119;SDS011;11729;50.836;4.330;2022-07-17T03:50:32;9.40;;;5.72;;
23119;SDS011;11729;50.836;4.330;2022-07-17T03:52:58;11.40;;;5.68;;
23119;SDS011;11729;50.836;4.330;2022-07-17T03:55:23;11.20;;;6.32;;
23119;SDS011;11729;50.836;4.330;2022-07-17T03:57:49;8.02;;;5.90;;
23119;SDS011;11729;50.836;4.330;2022-07-17T04:00:14;8.73;;;5.97;;
23119;SDS011;11729;50.836;4.330;2022-07-17T04:02:40;13.57;;;6.00;;
23119;SDS011;11729;50.836;4.330;2022-07-17T04:05:06;13.77;;;6.10;;
23119;SDS011;11729;50.836;4.330;2022-07-17T04:07:34;12.23;;;6.43;;
23119;SDS011;11729;50.836;4.330;2022-07-17T04:10:04;10.80;;;5.78;;
23119;SDS011;11729;50.836;4.330;2022-07-17T04:12:30;11.13;;;5.82;;
23119;SDS011;11729;50.836;4.330;2022-07-17T04:14:56;8.65;;;6.05;;
23119;SDS011;11729;50.836;4.330;2022-07-17T04:17:22;7.15;;;5.68;;
23119;SDS011;11729;50.836;4.330;2022-07-17T04:19:48;15.20;;;6.47;;
23119;SDS011;11729;50.836;4.330;2022-07-17T04:22:13;11.40;;;5.93;;
23119;SDS011;11729;50.836;4.330;2022-07-17T04:24:40;11.50;;;5.90;;
23119;SDS011;11729;50.836;4.330;2022-07-17T04:27:06;8.77;;;5.57;;
23119;SDS011;11729;50.836;4.330;2022-07-17T04:29:32;9.02;;;6.05;;
23119;SDS011;11729;50.836;4.330;2022-07-17T04:31:59;11.80;;;6.07;;
23119;SDS011;11729;50.836;4.330;2022-07-17T04:34:25;10.30;;;5.65;;
23119;SDS011;11729;50.836;4.330;2022-07-17T04:36:51;11.98;;;5.95;;
23119;SDS011;11729;50.836;4.330;2022-07-17T04:39:17;11.90;;;5.60;;
23119;SDS011;11729;50.836;4.330;2022-07-17T04:41:42;7.72;;;5.65;;
23119;SDS011;11729;50.836;4.330;2022-07-17T04:44:08;8.50;;;5.82;;
23119;SDS011;11729;50.836;4.330;2022-07-17T04:46:34;13.65;;;5.97;;
23119;SDS011;11729;50.836;4.330;2022-07-17T04:48:59;7.68;;;5.82;;
23119;SDS011;11729;50.836;4.330;2022-07-17T04:51:25;11.68;;;6.68;;
23119;SDS011;11729;50.836;4.330;2022-07-17T04:53:50;8.85;;;5.60;;
23119;SDS011;11729;50.836;4.330;2022-07-17T04:56:16;11.23;;;5.45;;
23119;SDS011;11729;50.836;4.330;2022-07-17T04:58:41;13.40;;;5.75;;
23119;SDS011;11729;50.836;4.330;2022-07-17T05:01:07;8.57;;;5.72;;
23119;SDS011;11729;50.836;4.330;2022-07-17T05:03:33;10.82;;;6.22;;
23119;SDS011;11729;50.836;4.330;2022-07-17T05:05:58;11.60;;;6.00;;
23119;SDS011;11729;50.836;4.330;2022-07-17T05:08:24;9.57;;;5.95;;
23119;SDS011;11729;50.836;4.330;2022-07-17T05:10:50;13.13;;;6.03;;
23119;SDS011;11729;50.836;4.330;2022-07-17T05:13:15;10.75;;;5.50;;
23119;SDS011;11729;50.836;4.330;2022-07-17T05:15:41;11.50;;;5.97;;
23119;SDS011;11729;50.836;4.330;2022-07-17T05:18:07;8.05;;;5.47;;
23119;SDS011;11729;50.836;4.330;2022-07-17T05:20:33;10.60;;;5.85;;
23119;SDS011;11729;50.836;4.330;2022-07-17T05:22:59;9.10;;;5.82;;
23119;SDS011;11729;50.836;4.330;2022-07-17T05:25:25;9.32;;;5.90;;
23119;SDS011;11729;50.836;4.330;2022-07-17T05:27:50;11.75;;;5.70;;
23119;SDS011;11729;50.836;4.330;2022-07-17T05:30:16;10.82;;;6.05;;
23119;SDS011;11729;50.836;4.330;2022-07-17T05:32:42;10.00;;;5.47;;
23119;SDS011;11729;50.836;4.330;2022-07-17T05:35:07;9.98;;;5.40;;
23119;SDS011;11729;50.836;4.330;2022-07-17T05:37:33;9.95;;;5.60;;
23119;SDS011;11729;50.836;4.330;2022-07-17T05:39:59;10.25;;;5.70;;
23119;SDS011;11729;50.836;4.330;2022-07-17T05:42:24;9.93;;;6.13;;
23119;SDS011;11729;50.836;4.330;2022-07-17T05:44:50;9.75;;;6.15;;
23119;SDS011;11729;50.836;4.330;2022-07-17T05:47:15;6.70;;;5.55;;
23119;SDS011;11729;50.836;4.330;2022-07-17T05:49:41;12.43;;;5.65;;
23119;SDS011;11729;50.836;4.330;2022-07-17T05:52:07;8.68;;;5.80;;
23119;SDS011;11729;50.836;4.330;2022-07-17T05:54:32;10.82;;;5.78;;
23119;SDS011;11729;50.836;4.330;2022-07-17T05:56:59;13.85;;;6.30;;
23119;SDS011;11729;50.836;4.330;2022-07-17T05:59:25;10.23;;;5.80;;
23119;SDS011;11729;50.836;4.330;2022-07-17T06:01:50;6.90;;;5.63;;
23119;SDS011;11729;50.836;4.330;2022-07-17T06:04:16;8.02;;;5.30;;
23119;SDS011;11729;50.836;4.330;2022-07-17T06:06:42;9.18;;;5.50;;
23119;SDS011;11729;50.836;4.330;2022-07-17T06:09:07;9.73;;;5.68;;
23119;SDS011;11729;50.836;4.330;2022-07-17T06:11:33;7.97;;;4.90;;
23119;SDS011;11729;50.836;4.330;2022-07-17T06:13:59;8.48;;;5.30;;
23119;SDS011;11729;50.836;4.330;2022-07-17T06:16:25;7.82;;;4.90;;
23119;SDS011;11729;50.836;4.330;2022-07-17T06:18:50;9.80;;;5.05;;
23119;SDS011;11729;50.836;4.330;2022-07-17T06:21:16;9.25;;;5.15;;
23119;SDS011;11729;50.836;4.330;2022-07-17T06:23:41;9.07;;;4.97;;
23119;SDS011;11729;50.836;4.330;2022-07-17T06:26:07;9.45;;;4.80;;
23119;SDS011;11729;50.836;4.330;2022-07-17T06:28:33;8.23;;;4.70;;
23119;SDS011;11729;50.836;4.330;2022-07-17T06:30:58;7.60;;;5.03;;
23119;SDS011;11729;50.836;4.330;2022-07-17T06:33:24;9.52;;;4.90;;
23119;SDS011;11729;50.836;4.330;2022-07-17T06:35:49;7.82;;;4.80;;
23119;SDS011;11729;50.836;4.330;2022-07-17T06:38:15;9.13;;;5.15;;
23119;SDS011;11729;50.836;4.330;2022-07-17T06:40:41;10.18;;;5.18;;
23119;SDS011;11729;50.836;4.330;2022-07-17T06:43:07;12.23;;;4.95;;
23119;SDS011;11729;50.836;4.330;2022-07-17T06:45:33;7.38;;;5.25;;
23119;SDS011;11729;50.836;4.330;2022-07-17T06:47:58;9.95;;;4.90;;
23119;SDS011;11729;50.836;4.330;2022-07-17T06:50:24;11.05;;;5.45;;
23119;SDS011;11729;50.836;4.330;2022-07-17T06:52:49;12.32;;;5.70;;
23119;SDS011;11729;50.836;4.330;2022-07-17T06:55:15;16.35;;;5.60;;
23119;SDS011;11729;50.836;4.330;2022-07-17T06:57:41;13.88;;;5.28;;
23119;SDS011;11729;50.836;4.330;2022-07-17T07:00:07;9.15;;;5.47;;
23119;SDS011;11729;50.836;4.330;2022-07-17T07:02:34;13.43;;;5.80;;
23119;SDS011;11729;50.836;4.330;2022-07-17T07:04:59;11.18;;;5.88;;
23119;SDS011;11729;50.836;4.330;2022-07-17T07:07:25;10.63;;;5.38;;
23119;SDS011;11729;50.836;4.330;2022-07-17T07:09:51;8.90;;;5.53;;
23119;SDS011;11729;50.836;4.330;2022-07-17T07:12:16;7.57;;;5.10;;
23119;SDS011;11729;50.836;4.330;2022-07-17T07:14:42;13.73;;;6.15;;
23119;SDS011;11729;50.836;4.330;2022-07-17T07:17:07;8.50;;;4.88;;
23119;SDS011;11729;50.836;4.330;2022-07-17T07:19:33;11.77;;;5.38;;
23119;SDS011;11729;50.836;4.330;2022-07-17T07:21:59;10.30;;;4.90;;
23119;SDS011;11729;50.836;4.330;2022-07-17T07:24:24;9.30;;;4.65;;
23119;SDS011;11729;50.836;4.330;2022-07-17T07:26:51;9.18;;;4.85;;
23119;SDS011;11729;50.836;4.330;2022-07-17T07:29:17;11.32;;;5.28;;
23119;SDS011;11729;50.836;4.330;2022-07-17T07:31:43;10.77;;;5.10;;
23119;SDS011;11729;50.836;4.330;2022-07-17T07:34:09;6.90;;;4.80;;
23119;SDS011;11729;50.836;4.330;2022-07-17T07:36:34;15.45;;;5.22;;
23119;SDS011;11729;50.836;4.330;2022-07-17T07:39:00;10.95;;;5.28;;
23119;SDS011;11729;50.836;4.330;2022-07-17T07:41:25;9.82;;;5.00;;
23119;SDS011;11729;50.836;4.330;2022-07-17T07:43:51;13.38;;;5.50;;
23119;SDS011;11729;50.836;4.330;2022-07-17T07:46:17;13.25;;;5.18;;
23119;SDS011;11729;50.836;4.330;2022-07-17T07:48:42;14.40;;;4.97;;
23119;SDS011;11729;50.836;4.330;2022-07-17T07:51:08;9.00;;;5.35;;
23119;SDS011;11729;50.836;4.330;2022-07-17T07:53:34;10.88;;;5.28;;
23119;SDS011;11729;50.836;4.330;2022-07-17T07:55:59;8.02;;;4.90;;
23119;SDS011;11729;50.836;4.330;2022-07-17T07:58:25;8.73;;;5.13;;
23119;SDS011;11729;50.836;4.330;2022-07-17T08:00:50;11.32;;;5.35;;
23119;SDS011;11729;50.836;4.330;2022-07-17T08:03:16;11.82;;;4.93;;
23119;SDS011;11729;50.836;4.330;2022-07-17T08:05:42;9.82;;;4.80;;
23119;SDS011;11729;50.836;4.330;2022-07-17T08:08:08;11.02;;;4.97;;
23119;SDS011;11729;50.836;4.330;2022-07-17T08:10:34;8.52;;;5.20;;
23119;SDS011;11729;50.836;4.330;2022-07-17T08:13:00;12.45;;;5.10;;
23119;SDS011;11729;50.836;4.330;2022-07-17T08:15:26;14.13;;;5.15;;
23119;SDS011;11729;50.836;4.330;2022-07-17T08:17:52;10.65;;;5.40;;
23119;SDS011;11729;50.836;4.330;2022-07-17T08:20:18;5.40;;;4.53;;
23119;SDS011;11729;50.836;4.330;2022-07-17T08:22:45;14.80;;;4.93;;
23119;SDS011;11729;50.836;4.330;2022-07-17T08:25:13;9.45;;;5.10;;
23119;SDS011;11729;50.836;4.330;2022-07-17T08:27:40;7.10;;;4.32;;
23119;SDS011;11729;50.836;4.330;2022-07-17T08:30:07;12.38;;;4.93;;
23119;SDS011;11729;50.836;4.330;2022-07-17T08:32:34;8.15;;;4.95;;
23119;SDS011;11729;50.836;4.330;2022-07-17T08:35:00;7.30;;;4.90;;
23119;SDS011;11729;50.836;4.330;2022-07-17T08:37:26;9.68;;;4.97;;
23119;SDS011;11729;50.836;4.330;2022-07-17T08:39:51;8.32;;;4.63;;
23119;SDS011;11729;50.836;4.330;2022-07-17T08:42:17;9.13;;;4.43;;
23119;SDS011;11729;50.836;4.330;2022-07-17T08:44:43;7.95;;;4.50;;
23119;SDS011;11729;50.836;4.330;2022-07-17T08:47:10;6.97;;;4.80;;
23119;SDS011;11729;50.836;4.330;2022-07-17T08:49:38;11.27;;;5.25;;
23119;SDS011;11729;50.836;4.330;2022-07-17T08:52:09;7.78;;;4.82;;
23119;SDS011;11729;50.836;4.330;2022-07-17T08:54:35;10.70;;;5.05;;
23119;SDS011;11729;50.836;4.330;2022-07-17T08:57:01;7.05;;;4.85;;
23119;SDS011;11729;50.836;4.330;2022-07-17T08:59:28;8.95;;;4.95;;
23119;SDS011;11729;50.836;4.330;2022-07-17T09:01:54;8.55;;;4.63;;
23119;SDS011;11729;50.836;4.330;2022-07-17T09:04:20;7.70;;;5.13;;
23119;SDS011;11729;50.836;4.330;2022-07-17T09:06:45;9.23;;;5.03;;
23119;SDS011;11729;50.836;4.330;2022-07-17T09:09:12;7.68;;;4.80;;
23119;SDS011;11729;50.836;4.330;2022-07-17T09:14:16;9.32;;;5.15;;
23119;SDS011;11729;50.836;4.330;2022-07-17T09:19:40;7.30;;;4.82;;
23119;SDS011;11729;50.836;4.330;2022-07-17T09:27:35;8.20;;;5.40;;
23119;SDS011;11729;50.836;4.330;2022-07-17T09:30:08;6.90;;;5.17;;
23119;SDS011;11729;50.836;4.330;2022-07-17T09:32:37;8.35;;;5.00;;
23119;SDS011;11729;50.836;4.330;2022-07-17T09:35:05;6.38;;;5.03;;
23119;SDS011;11729;50.836;4.330;2022-07-17T09:37:33;9.63;;;5.22;;
23119;SDS011;11729;50.836;4.330;2022-07-17T09:45:01;7.90;;;4.70;;
23119;SDS011;11729;50.836;4.330;2022-07-17T09:47:36;5.55;;;4.80;;
23119;SDS011;11729;50.836;4.330;2022-07-17T09:50:03;9.73;;;4.65;;
23119;SDS011;11729;50.836;4.330;2022-07-17T09:52:33;13.30;;;4.90;;
23119;SDS011;11729;50.836;4.330;2022-07-17T09:55:00;8.20;;;4.70;;
23119;SDS011;11729;50.836;4.330;2022-07-17T09:57:28;5.28;;;4.63;;
23119;SDS011;11729;50.836;4.330;2022-07-17T09:59:58;8.48;;;5.10;;
23119;SDS011;11729;50.836;4.330;2022-07-17T10:02:27;7.97;;;5.28;;
23119;SDS011;11729;50.836;4.330;2022-07-17T10:04:54;5.77;;;5.17;;
23119;SDS011;11729;50.836;4.330;2022-07-17T10:07:20;10.05;;;5.50;;
23119;SDS011;11729;50.836;4.330;2022-07-17T10:09:47;12.20;;;5.55;;
23119;SDS011;11729;50.836;4.330;2022-07-17T10:12:13;8.07;;;5.03;;
23119;SDS011;11729;50.836;4.330;2022-07-17T10:14:40;8.35;;;5.55;;
23119;SDS011;11729;50.836;4.330;2022-07-17T10:17:10;10.82;;;5.53;;
23119;SDS011;11729;50.836;4.330;2022-07-17T10:19:44;6.57;;;5.05;;
23119;SDS011;11729;50.836;4.330;2022-07-17T10:22:15;7.95;;;5.63;;
23119;SDS011;11729;50.836;4.330;2022-07-17T10:24:57;9.17;;;5.17;;
23119;SDS011;11729;50.836;4.330;2022-07-17T10:27:30;7.75;;;5.22;;
23119;SDS011;11729;50.836;4.330;2022-07-17T10:29:59;5.88;;;4.85;;
23119;SDS011;11729;50.836;4.330;2022-07-17T10:32:26;7.13;;;5.10;;
23119;SDS011;11729;50.836;4.330;2022-07-17T10:34:59;8.95;;;5.20;;
23119;SDS011;11729;50.836;4.330;2022-07-17T10:45:39;8.52;;;4.97;;
23119;SDS011;11729;50.836;4.330;2022-07-17T10:50:53;11.65;;;5.43;;
23119;SDS011;11729;50.836;4.330;2022-07-17T10:53:22;7.82;;;5.57;;
23119;SDS011;11729;50.836;4.330;2022-07-17T11:03:36;9.55;;;5.60;;
23119;SDS011;11729;50.836;4.330;2022-07-17T11:06:05;7.35;;;5.60;;
23119;SDS011;11729;50.836;4.330;2022-07-17T11:08:46;8.68;;;5.75;;
23119;SDS011;11729;50.836;4.330;2022-07-17T11:11:14;9.30;;;5.55;;
23119;SDS011;11729;50.836;4.330;2022-07-17T11:13:41;9.48;;;5.70;;
23119;SDS011;11729;50.836;4.330;2022-07-17T11:16:06;10.35;;;5.43;;
23119;SDS011;11729;50.836;4.330;2022-07-17T11:18:32;6.10;;;5.50;;
23119;SDS011;11729;50.836;4.330;2022-07-17T11:21:00;7.63;;;5.82;;
23119;SDS011;11729;50.836;4.330;2022-07-17T11:23:27;11.98;;;6.10;;
23119;SDS011;11729;50.836;4.330;2022-07-17T11:26:04;12.45;;;6.18;;
23119;SDS011;11729;50.836;4.330;2022-07-17T11:28:32;7.72;;;5.90;;
23119;SDS011;11729;50.836;4.330;2022-07-17T11:33:24;11.57;;;6.07;;
23119;SDS011;11729;50.836;4.330;2022-07-17T11:35:49;8.57;;;5.70;;
23119;SDS011;11729;50.836;4.330;2022-07-17T11:38:15;12.35;;;6.07;;
23119;SDS011;11729;50.836;4.330;2022-07-17T11:40:47;10.05;;;5.65;;
23119;SDS011;11729;50.836;4.330;2022-07-17T11:43:14;11.15;;;5.70;;
23119;SDS011;11729;50.836;4.330;2022-07-17T11:45:41;8.07;;;5.78;;
23119;SDS011;11729;50.836;4.330;2022-07-17T11:48:08;8.63;;;5.90;;
23119;SDS011;11729;50.836;4.330;2022-07-17T11:50:35;6.85;;;5.93;;
23119;SDS011;11729;50.836;4.330;2022-07-17T11:55:38;12.52;;;6.35;;
23119;SDS011;11729;50.836;4.330;2022-07-17T11:58:04;8.35;;;6.03;;
23119;SDS011;11729;50.836;4.330;2022-07-17T12:00:30;7.25;;;6.03;;
23119;SDS011;11729;50.836;4.330;2022-07-17T12:03:00;8.07;;;6.18;;
23119;SDS011;11729;50.836;4.330;2022-07-17T12:05:36;7.82;;;5.60;;
23119;SDS011;11729;50.836;4.330;2022-07-17T12:08:02;8.40;;;5.57;;
23119;SDS011;11729;50.836;4.330;2022-07-17T12:10:32;7.05;;;5.55;;
23119;SDS011;11729;50.836;4.330;2022-07-17T12:13:02;6.95;;;5.47;;
23119;SDS011;11729;50.836;4.330;2022-07-17T12:15:39;15.57;;;5.80;;
23119;SDS011;11729;50.836;4.330;2022-07-17T12:18:18;8.25;;;5.93;;
23119;SDS011;11729;50.836;4.330;2022-07-17T12:20:47;8.75;;;6.05;;
23119;SDS011;11729;50.836;4.330;2022-07-17T12:26:08;6.78;;;5.60;;
23119;SDS011;11729;50.836;4.330;2022-07-17T12:28:36;9.27;;;5.60;;
23119;SDS011;11729;50.836;4.330;2022-07-17T12:31:02;14.27;;;6.57;;
23119;SDS011;11729;50.836;4.330;2022-07-17T12:33:29;7.47;;;6.05;;
23119;SDS011;11729;50.836;4.330;2022-07-17T12:35:55;10.05;;;5.95;;
23119;SDS011;11729;50.836;4.330;2022-07-17T12:38:21;6.45;;;5.70;;
23119;SDS011;11729;50.836;4.330;2022-07-17T12:40:47;10.48;;;5.85;;
23119;SDS011;11729;50.836;4.330;2022-07-17T12:43:13;6.78;;;6.05;;
23119;SDS011;11729;50.836;4.330;2022-07-17T12:45:39;8.20;;;5.55;;
23119;SDS011;11729;50.836;4.330;2022-07-17T12:48:04;7.03;;;5.35;;
23119;SDS011;11729;50.836;4.330;2022-07-17T12:50:30;8.20;;;5.35;;
23119;SDS011;11729;50.836;4.330;2022-07-17T12:52:56;11.48;;;6.47;;
23119;SDS011;11729;50.836;4.330;2022-07-17T12:55:21;7.38;;;5.57;;
23119;SDS011;11729;50.836;4.330;2022-07-17T12:57:47;8.88;;;5.70;;
23119;SDS011;11729;50.836;4.330;2022-07-17T13:00:13;7.10;;;6.03;;
23119;SDS011;11729;50.836;4.330;2022-07-17T13:02:39;7.43;;;5.68;;
23119;SDS011;11729;50.836;4.330;2022-07-17T13:05:05;10.15;;;5.82;;
23119;SDS011;11729;50.836;4.330;2022-07-17T13:07:31;6.53;;;5.30;;
23119;SDS011;11729;50.836;4.330;2022-07-17T13:09:57;9.00;;;6.15;;
23119;SDS011;11729;50.836;4.330;2022-07-17T13:12:23;5.90;;;5.40;;
23119;SDS011;11729;50.836;4.330;2022-07-17T13:14:48;6.60;;;5.30;;
23119;SDS011;11729;50.836;4.330;2022-07-17T13:17:14;7.75;;;5.35;;
23119;SDS011;11729;50.836;4.330;2022-07-17T13:19:40;8.10;;;5.60;;
23119;SDS011;11729;50.836;4.330;2022-07-17T13:22:06;7.65;;;5.72;;
23119;SDS011;11729;50.836;4.330;2022-07-17T13:24:32;8.23;;;5.55;;
23119;SDS011;11729;50.836;4.330;2022-07-17T13:26:59;11.10;;;5.90;;
23119;SDS011;11729;50.836;4.330;2022-07-17T13:31:51;5.85;;;5.20;;
23119;SDS011;11729;50.836;4.330;2022-07-17T13:34:21;6.88;;;5.63;;
23119;SDS011;11729;50.836;4.330;2022-07-17T13:36:47;8.80;;;5.80;;
23119;SDS011;11729;50.836;4.330;2022-07-17T13:39:13;7.28;;;5.55;;
23119;SDS011;11729;50.836;4.330;2022-07-17T13:41:39;6.22;;;5.50;;
23119;SDS011;11729;50.836;4.330;2022-07-17T13:44:07;6.37;;;5.37;;
23119;SDS011;11729;50.836;4.330;2022-07-17T13:46:32;6.80;;;5.57;;
23119;SDS011;11729;50.836;4.330;2022-07-17T13:48:59;6.57;;;5.97;;
23119;SDS011;11729;50.836;4.330;2022-07-17T13:51:25;7.18;;;5.70;;
23119;SDS011;11729;50.836;4.330;2022-07-17T13:53:52;7.07;;;6.00;;
23119;SDS011;11729;50.836;4.330;2022-07-17T13:56:19;7.10;;;6.10;;
23119;SDS011;11729;50.836;4.330;2022-07-17T13:58:46;6.15;;;5.57;;
23119;SDS011;11729;50.836;4.330;2022-07-17T14:01:12;11.05;;;5.85;;
23119;SDS011;11729;50.836;4.330;2022-07-17T14:03:39;8.68;;;5.85;;
23119;SDS011;11729;50.836;4.330;2022-07-17T14:06:04;6.53;;;5.93;;
23119;SDS011;11729;50.836;4.330;2022-07-17T14:08:30;6.82;;;5.93;;
23119;SDS011;11729;50.836;4.330;2022-07-17T14:10:56;5.80;;;5.35;;
23119;SDS011;11729;50.836;4.330;2022-07-17T14:13:22;7.00;;;5.82;;
23119;SDS011;11729;50.836;4.330;2022-07-17T14:15:48;7.78;;;5.53;;
23119;SDS011;11729;50.836;4.330;2022-07-17T14:18:14;6.95;;;5.80;;
23119;SDS011;11729;50.836;4.330;2022-07-17T14:20:40;6.72;;;6.13;;
23119;SDS011;11729;50.836;4.330;2022-07-17T14:23:05;6.93;;;6.05;;
23119;SDS011;11729;50.836;4.330;2022-07-17T14:25:31;5.97;;;5.45;;
23119;SDS011;11729;50.836;4.330;2022-07-17T14:27:57;7.45;;;5.70;;
23119;SDS011;11729;50.836;4.330;2022-07-17T14:30:23;5.68;;;5.18;;
23119;SDS011;11729;50.836;4.330;2022-07-17T14:32:48;8.10;;;5.85;;
23119;SDS011;11729;50.836;4.330;2022-07-17T14:35:14;7.35;;;5.30;;
23119;SDS011;11729;50.836;4.330;2022-07-17T14:37:40;7.47;;;5.20;;
23119;SDS011;11729;50.836;4.330;2022-07-17T14:40:06;5.60;;;5.10;;
23119;SDS011;11729;50.836;4.330;2022-07-17T14:42:33;9.32;;;5.20;;
23119;SDS011;11729;50.836;4.330;2022-07-17T14:44:59;6.43;;;5.07;;
23119;SDS011;11729;50.836;4.330;2022-07-17T14:47:25;6.15;;;5.65;;
23119;SDS011;11729;50.836;4.330;2022-07-17T14:49:51;6.68;;;5.15;;
23119;SDS011;11729;50.836;4.330;2022-07-17T14:52:17;6.53;;;5.53;;
23119;SDS011;11729;50.836;4.330;2022-07-17T14:54:43;6.25;;;5.07;;
23119;SDS011;11729;50.836;4.330;2022-07-17T14:57:08;6.80;;;4.95;;
23119;SDS011;11729;50.836;4.330;2022-07-17T14:59:34;6.78;;;5.25;;
23119;SDS011;11729;50.836;4.330;2022-07-17T15:02:00;5.63;;;5.10;;
23119;SDS011;11729;50.836;4.330;2022-07-17T15:04:25;5.70;;;5.20;;
23119;SDS011;11729;50.836;4.330;2022-07-17T15:06:51;8.05;;;5.40;;
23119;SDS011;11729;50.836;4.330;2022-07-17T15:09:17;5.97;;;5.03;;
23119;SDS011;11729;50.836;4.330;2022-07-17T15:11:43;7.60;;;5.35;;
23119;SDS011;11729;50.836;4.330;2022-07-17T15:14:08;6.13;;;5.30;;
23119;SDS011;11729;50.836;4.330;2022-07-17T15:16:34;5.88;;;5.35;;
23119;SDS011;11729;50.836;4.330;2022-07-17T15:19:00;6.10;;;5.53;;
23119;SDS011;11729;50.836;4.330;2022-07-17T15:21:25;6.75;;;5.30;;
23119;SDS011;11729;50.836;4.330;2022-07-17T15:23:51;7.05;;;5.75;;